createdAt,value
2023-01-13T00:01:44.828Z,100125.03
2023-01-13T00:06:46.890Z,100116.25
2023-01-13T00:11:49.070Z,100141.41
2023-01-13T00:16:51.123Z,100119.69
2023-01-13T00:21:53.179Z,100115.22
2023-01-13T00:26:55.328Z,100124.59
2023-01-13T00:31:58.334Z,100103.94
2023-01-13T00:37:00.427Z,100120.25
2023-01-13T00:42:21.240Z,100121.25
2023-01-13T00:47:25.916Z,100108.78
2023-01-13T00:52:27.938Z,100112.91
2023-01-13T00:57:29.988Z,100075.91
2023-01-13T01:02:32.050Z,100079.94
2023-01-13T01:07:34.191Z,100070.47
2023-01-13T01:12:36.385Z,100060.28
2023-01-13T01:17:38.584Z,100061.97
2023-01-13T01:22:40.733Z,100070.41
2023-01-13T01:27:42.771Z,100055.63
2023-01-13T01:32:44.941Z,100035.13
2023-01-13T01:37:47.118Z,100076.44
2023-01-13T01:43:07.941Z,100070.47
2023-01-13T01:48:11.406Z,100048.81
2023-01-13T01:53:16.531Z,100022.97
2023-01-13T01:58:31.494Z,100008.34
2023-01-13T02:03:40.232Z,100024.50
2023-01-13T02:08:42.271Z,99987.75
2023-01-13T02:13:44.322Z,100003.31
2023-01-13T02:19:12.504Z,99999.97
2023-01-13T02:24:51.931Z,99991.50
2023-01-13T02:30:18.769Z,100019.56
2023-01-13T02:35:45.696Z,100024.91
2023-01-13T02:41:21.403Z,100039.22
2023-01-13T02:46:23.378Z,99994.09
2023-01-13T02:51:30.081Z,100030.09
2023-01-13T02:56:34.957Z,100042.28
2023-01-13T03:01:37.170Z,100013.06
2023-01-13T03:06:54.347Z,100003.94
2023-01-13T03:12:11.113Z,100003.09
2023-01-13T03:17:30.186Z,100002.47
2023-01-13T03:22:55.948Z,99982.09
2023-01-13T03:28:11.064Z,99982.94
2023-01-13T03:33:20.107Z,99989.25
2023-01-13T03:38:28.516Z,99989.13
2023-01-13T03:43:59.565Z,100010.56
2023-01-13T03:49:04.121Z,100001.94
2023-01-13T03:54:11.512Z,99990.81
2023-01-13T03:59:21.584Z,99972.34
2023-01-13T04:04:35.919Z,100013.00
2023-01-13T04:09:57.064Z,100019.03
2023-01-13T04:14:59.155Z,100012.31
2023-01-13T04:20:01.196Z,100006.06
2023-01-13T04:25:05.577Z,100025.75
2023-01-13T04:30:08.512Z,99992.41
2023-01-13T04:35:10.729Z,100008.59
2023-01-13T04:40:13.052Z,99984.09
2023-01-13T04:45:15.159Z,100026.03
2023-01-13T04:50:19.910Z,100016.97
2023-01-13T04:55:24.042Z,100021.69
2023-01-13T05:00:26.131Z,100004.59
2023-01-13T05:05:29.920Z,100015.88
2023-01-13T05:10:32.187Z,100018.72
2023-01-13T05:15:52.501Z,100019.03
2023-01-13T05:20:54.600Z,100039.63
2023-01-13T05:25:56.752Z,100032.75
2023-01-13T05:30:58.981Z,100031.78
2023-01-13T05:36:03.095Z,100048.75
2023-01-13T05:41:23.612Z,100019.19
2023-01-13T05:46:25.855Z,100027.56
2023-01-13T05:51:28.084Z,100012.78
2023-01-13T05:56:30.157Z,100036.25
2023-01-13T06:01:32.287Z,100041.97
2023-01-13T06:06:34.417Z,100021.75
2023-01-13T06:11:36.953Z,100024.91
2023-01-13T06:16:39.041Z,100016.81
2023-01-13T06:21:41.763Z,100022.00
2023-01-13T06:26:43.958Z,100019.31
2023-01-13T06:31:46.069Z,100009.72
2023-01-13T06:36:52.409Z,100010.47
2023-01-13T06:42:13.247Z,100010.19
2023-01-13T06:47:15.317Z,100027.94
2023-01-13T06:52:17.439Z,100017.97
2023-01-13T06:57:19.522Z,100014.00
2023-01-13T07:02:21.788Z,100015.31
2023-01-13T07:07:23.930Z,100000.47
2023-01-13T07:12:26.083Z,100004.31
2023-01-13T07:17:28.137Z,100014.69
2023-01-13T07:22:30.225Z,100031.78
2023-01-13T07:27:32.334Z,100028.34
2023-01-13T07:32:34.540Z,100043.91
2023-01-13T07:37:39.404Z,100048.63
2023-01-13T07:43:00.055Z,100046.41
2023-01-13T07:48:02.130Z,100056.03
2023-01-13T07:53:04.489Z,100037.72
2023-01-13T07:58:06.572Z,100042.06
2023-01-13T08:03:08.823Z,100054.97
2023-01-13T08:08:11.135Z,100051.06
2023-01-13T08:13:20.175Z,100033.31
2023-01-13T08:18:23.071Z,100046.84
2023-01-13T08:23:25.169Z,100024.91
2023-01-13T08:28:27.376Z,100056.50
2023-01-13T08:33:31.194Z,100025.94
2023-01-13T08:38:34.653Z,100054.94
2023-01-13T08:43:36.742Z,100044.72
2023-01-13T08:48:38.958Z,100039.66
2023-01-13T08:53:41.232Z,100052.28
2023-01-13T08:58:43.521Z,100048.16
2023-01-13T09:03:45.894Z,100040.88
2023-01-13T09:08:48.160Z,100020.66
2023-01-13T09:13:50.646Z,100007.47
2023-01-13T09:18:52.827Z,100008.91
2023-01-13T09:23:54.880Z,100008.16
2023-01-13T09:28:56.953Z,100009.28
2023-01-13T09:34:37.740Z,100006.84
2023-01-13T09:39:40.026Z,100005.00
2023-01-13T09:44:57.679Z,99979.91
2023-01-13T09:50:06.402Z,100014.31
2023-01-13T09:55:11.278Z,99991.13
2023-01-13T10:00:23.459Z,100000.28
2023-01-13T10:05:40.875Z,100005.88
2023-01-13T10:10:48.422Z,99999.69
2023-01-13T10:15:54.912Z,100001.72
2023-01-13T10:21:02.949Z,100005.25
2023-01-13T10:26:21.129Z,100007.84
2023-01-13T10:31:25.337Z,100007.06
2023-01-13T10:36:27.742Z,99993.72
2023-01-13T10:41:30.591Z,100011.97
2023-01-13T10:46:36.945Z,100003.69
2023-01-13T10:51:38.996Z,99995.97
2023-01-13T10:56:47.188Z,100005.44
2023-01-13T11:02:00.233Z,100041.44
2023-01-13T11:07:05.746Z,100009.63
2023-01-13T11:12:30.854Z,100005.69
2023-01-13T11:17:38.622Z,99995.63
2023-01-13T11:22:48.056Z,100001.34
2023-01-13T11:28:27.403Z,100000.88
2023-01-13T11:34:07.417Z,100016.28
2023-01-13T11:39:24.640Z,100012.34
2023-01-13T11:44:41.385Z,100026.84
2023-01-13T11:49:48.610Z,100036.78
2023-01-13T11:55:24.544Z,100025.09
2023-01-13T12:00:41.574Z,100025.25
2023-01-13T12:06:11.568Z,100023.34
2023-01-13T12:11:31.499Z,100025.44
2023-01-13T12:16:34.041Z,99997.88
2023-01-13T12:21:39.089Z,100039.75
2023-01-13T12:26:49.466Z,100037.16
2023-01-13T12:31:52.412Z,100022.72
2023-01-13T12:37:11.068Z,100013.28
2023-01-13T12:42:37.743Z,100038.13
2023-01-13T12:47:45.743Z,100048.53
2023-01-13T12:52:48.583Z,100040.13
2023-01-13T12:58:06.894Z,100056.91
2023-01-13T13:03:15.473Z,100044.00
2023-01-13T13:08:21.080Z,100046.59
2023-01-13T13:13:48.439Z,100053.47
2023-01-13T13:18:50.551Z,100043.72
2023-01-13T13:23:55.583Z,100059.13
2023-01-13T13:29:34.887Z,100064.47
2023-01-13T13:34:55.699Z,100057.75
2023-01-13T13:40:16.344Z,100037.84
2023-01-13T13:45:43.287Z,100072.97
2023-01-13T13:50:50.895Z,100062.94
2023-01-13T13:55:59.877Z,100095.84
2023-01-13T14:01:07.565Z,100080.25
2023-01-13T14:06:24.390Z,100074.56
2023-01-13T14:11:32.620Z,100095.78
2023-01-13T14:16:37.485Z,100088.13
2023-01-13T14:21:39.659Z,100059.66
2023-01-13T14:26:42.291Z,100056.91
2023-01-13T14:31:45.237Z,100069.13
2023-01-13T14:36:51.397Z,100078.59
2023-01-13T14:41:53.810Z,100096.00
2023-01-13T14:47:17.365Z,100096.00
2023-01-13T14:52:22.195Z,100074.31
2023-01-13T14:57:29.066Z,100085.09
2023-01-13T15:02:31.358Z,100085.09
2023-01-13T15:07:33.805Z,100083.41
2023-01-13T15:12:40.753Z,100082.13
2023-01-13T15:17:42.862Z,100068.47
2023-01-13T15:22:45.899Z,100077.84
2023-01-13T15:27:51.850Z,100076.44
2023-01-13T15:32:55.601Z,100076.28
2023-01-13T15:37:58.362Z,100061.00
2023-01-13T15:43:19.210Z,100060.72
2023-01-13T15:48:23.211Z,100070.03
2023-01-13T15:53:25.871Z,100058.78
2023-01-13T15:58:30.641Z,100042.59
2023-01-13T16:03:32.767Z,100046.19
2023-01-13T16:08:35.078Z,100049.09
2023-01-13T16:13:37.368Z,100031.56
2023-01-13T16:18:39.539Z,100038.50
2023-01-13T16:23:42.018Z,100034.09
2023-01-13T16:28:44.133Z,100048.25
2023-01-13T16:33:46.295Z,100045.16
2023-01-13T16:38:50.784Z,100059.22
2023-01-13T16:43:53.302Z,100061.88
2023-01-13T16:49:03.257Z,100040.28
2023-01-13T16:54:05.659Z,100047.16
2023-01-13T16:59:14.628Z,100032.78
2023-01-13T17:04:21.968Z,100037.03
2023-01-13T17:09:26.633Z,100039.88
2023-01-13T17:14:28.713Z,100056.16
2023-01-13T17:19:30.825Z,100060.25
2023-01-13T17:24:35.238Z,100052.72
2023-01-13T17:29:38.259Z,100032.16
2023-01-13T17:34:40.358Z,100041.94
2023-01-13T17:39:44.390Z,100034.03
2023-01-13T17:44:48.088Z,100036.53
2023-01-13T17:49:50.165Z,100046.53
2023-01-13T17:54:52.919Z,100060.03
2023-01-13T17:59:55.057Z,100049.72
2023-01-13T18:04:57.144Z,100062.88
2023-01-13T18:09:59.244Z,100055.09
2023-01-13T18:15:01.341Z,100068.75
2023-01-13T18:20:24.279Z,100048.72
2023-01-13T18:25:44.796Z,100057.59
2023-01-13T18:30:48.269Z,100051.50
2023-01-13T18:35:50.754Z,100037.66
2023-01-13T18:40:52.937Z,100052.25
2023-01-13T18:45:55.088Z,100046.13
2023-01-13T18:50:57.244Z,100042.00
2023-01-13T18:55:59.319Z,100055.75
2023-01-13T19:01:06.098Z,100057.94
2023-01-13T19:06:14.289Z,100052.81
2023-01-13T19:11:16.608Z,100055.41
2023-01-13T19:16:21.620Z,100076.41
2023-01-13T19:21:24.781Z,100049.56
2023-01-13T19:26:27.443Z,100058.00
2023-01-13T19:31:29.607Z,100045.94
2023-01-13T19:36:31.959Z,100045.53
2023-01-13T19:41:53.001Z,100055.09
2023-01-13T19:46:55.060Z,100051.81
2023-01-13T19:51:57.167Z,100057.75
2023-01-13T19:56:59.290Z,100053.31
2023-01-13T20:02:03.940Z,100061.88
2023-01-13T20:07:06.775Z,100057.69
2023-01-13T20:12:13.193Z,100048.06
2023-01-13T20:17:17.209Z,100072.28
2023-01-13T20:22:19.384Z,100053.56
2023-01-13T20:27:22.691Z,100055.44
2023-01-13T20:32:24.953Z,100058.63
2023-01-13T20:37:27.193Z,100058.88
2023-01-13T20:42:39.782Z,100053.00
2023-01-13T20:47:41.855Z,100063.06
2023-01-13T20:52:44.486Z,100065.75
2023-01-13T20:57:48.958Z,100064.97
2023-01-13T21:02:51.135Z,100069.16
2023-01-13T21:07:53.349Z,100066.47
2023-01-13T21:13:14.209Z,100042.00
2023-01-13T21:18:34.791Z,100050.34
2023-01-13T21:23:37.275Z,100055.88
2023-01-13T21:28:39.320Z,100045.06
2023-01-13T21:33:41.601Z,100032.97
2023-01-13T21:38:43.728Z,100044.97
2023-01-13T21:44:04.377Z,100066.47
2023-01-13T21:49:06.787Z,100029.03
2023-01-13T21:54:09.000Z,99994.97
2023-01-13T21:59:11.076Z,100035.34
2023-01-13T22:04:13.135Z,100037.00
2023-01-13T22:09:15.307Z,100039.69
2023-01-13T22:14:17.493Z,100046.75
2023-01-13T22:19:19.814Z,100043.03
2023-01-13T22:24:23.018Z,100029.78
2023-01-13T22:29:25.177Z,100024.56
2023-01-13T22:34:27.378Z,100031.47
2023-01-13T22:39:29.920Z,100038.34
2023-01-13T22:44:33.510Z,100022.34
2023-01-13T22:49:35.609Z,100032.59
2023-01-13T22:54:37.632Z,100044.09
2023-01-13T22:59:39.783Z,100037.03
2023-01-13T23:04:41.908Z,100049.88
2023-01-13T23:09:44.070Z,100040.81
2023-01-13T23:14:46.227Z,100016.22
2023-01-13T23:19:48.260Z,100040.72
2023-01-13T23:24:50.346Z,100037.84
2023-01-13T23:29:52.433Z,100046.22
2023-01-13T23:34:54.544Z,100023.44
2023-01-13T23:39:56.589Z,100040.47
2023-01-13T23:44:58.738Z,100033.41
2023-01-13T23:50:00.833Z,100052.84
2023-01-13T23:55:03.321Z,100038.16
